Hlavní strana
METAR-TAF:

METAR-TAF

Letiště :

Čingischánovo mezinárodní letiště

Ulánbátar, Mongolsko

zeměpisná šířka: 47-55N, zeměpisná délka: 106-52E, výška: 1306 m

Aktuální stav počasí

Zpráva byla vytvořena před 11 minutami, v 00:00 UTC
vítr z různých směrů 4 kt
Teplota -6°C
Vlhkost vzduchu 79%
Tlak 1024 hPa
Viditelnost 10 km a více
Žádná oblačnost pod 1500 m, nevyskytují se cumulonimby.

METAR: ZMUB 160000Z VRB02MPS CAVOK M06/M09 Q1024 NOSIG RMK QFE660.1 83

Čas: 08:11 (00:11 UTC)

Předpověď počasí

Zpráva byla vytvořena před 1 hodinou a 34 minutami, v 22:37 UTC
Předpověď platná od 16 v 00 UTC do 17 v 06 UTC
vítr z různých směrů 4 kt
Viditelnost 10 km a více
Žádná oblačnost pod 1500 m, nevyskytují se cumulonimby.

TAF: ZMUB 152237Z 1600/1706 VRB02MPS CAVOK TX14/1607Z TNM07/1622Z

Stav a předpovědi počasí z více než 4 000 letišť (zprávy METAR a TAF).

Červené a žluté tečky na mapě představují dostupné meteorologické stanice.

Když kurzor umístíte na tečku, zobrazí se název stanice.

Pak kliknutím zobrazíte stav a předpověď počasí.

Chcete-li změnit mapu, kliknutím na zelené tlačítko se znaménkem +mapu přiblížíte, kliknutím na zelené tlačítko se znaménkem – mapu oddálíte a kliknutím na zelené šipky přejdete na sousední mapy.


METAR-TAF: